• Join FlightAware (Why Join?)
  • Login
  • US Flag 
08:33PM EDT


 

Airport Tracker/Info


-or-


 

Live Flight TrackerFlight Track Log ✈ AWE3434 ✈ 24-Apr-2013 ✈ KPHL - KCMH

Flight Track Log - Related Links

Times and Time Zones

All times are in EDT time to prevent confusion due to time zone crossing. See the AWE3434 flight status page for this flight to view local times or setup timezone preferences in your user account.

Time Position Orientation Groundspeed Altitude Reporting Facility
EDT Latitude Longitude Course Direction KTS MPH feet Rate Location/Type
02:01PM 39.8594 -75.2842 307° West 129 148 1,300  Level FAA TRACON SMA TRACON (SMA)
02:01PM 39.8567 -75.3017 258° West 147 169 1,800 1,680 Climbing FAA TRACON SMA TRACON (SMA)
02:01PM 39.8503 -75.3422 258° West 212 244 2,900 2,100 Climbing FAA TRACON SMA TRACON (SMA)
02:02PM 39.8458 -75.3772 261° West 258 297 3,900 3,120 Climbing FAA TRACON SMA TRACON (SMA)
02:02PM 39.8572 -75.4017 301° West 275 316 5,000 3,360 Climbing FAA TRACON SMA TRACON (SMA)
02:02PM 39.8778 -75.4131 337° Northwest 281 323 6,100 3,720 Climbing FAA TRACON SMA TRACON (SMA)
02:03PM 40.1789 -75.5289 323° Northwest  Level FlightAware Approximate
02:03PM 39.9086 -75.4250 343° North 289 333 7,500  Level FAA TRACON SMA TRACON (SMA)
02:03PM 39.9331 -75.4358 341° North 288 331 8,800 3,600 Climbing FAA TRACON SMA TRACON (SMA)
02:03PM 39.9561 -75.4458 342° North 285 328 9,900 3,180 Climbing FAA TRACON SMA TRACON (SMA)
02:04PM 40.2529 -75.6043 311° West  Level FlightAware Approximate
02:04PM 39.9847 -75.4581 342° North 286 329 10,900  Level FAA TRACON SMA TRACON (SMA)
02:04PM 40.0103 -75.4692 342° North 307 353 11,600 1,500 Climbing FAA TRACON SMA TRACON (SMA)
02:04PM 40.0342 -75.4797 341° North 310 357 11,900 600 Climbing FAA TRACON SMA TRACON (SMA)
02:05PM 40.3176 -75.7016 307° West  Level FlightAware Approximate
02:05PM 40.0614 -75.4914 342° North 313 360 12,000  Level FAA TRACON SMA TRACON (SMA)
02:05PM 40.0933 -75.5050 342° North 314 361 11,900  Descending FAA TRACON SMA TRACON (SMA)
02:05PM 40.1156 -75.5150 341° North 314 361 12,000 840 Climbing FAA TRACON SMA TRACON (SMA)
02:06PM 40.3766 -75.8048 307° West  Level FlightAware Approximate
02:06PM 40.1511 -75.5303 342° North 315 362 12,500  Level FAA TRACON SMA TRACON (SMA)
02:06PM 40.1772 -75.5408 343° North 317 365 12,700 1,020 Climbing FAA TRACON SMA TRACON (SMA)
02:06PM 40.2022 -75.5511 343° North 318 366 13,200 1,920 Climbing FAA TRACON SMA TRACON (SMA)
02:07PM 40.2269 -75.5706 329° Northwest 318 366 14,000 2,700 Climbing FAA TRACON SMA TRACON (SMA)
02:07PM 40.2494 -75.6017 313° West 311 358 15,000 2,520 Climbing FAA TRACON SMA TRACON (SMA)
02:07PM 40.2656 -75.6247 312° West 316 364 15,700 2,460 Climbing FAA TRACON SMA TRACON (SMA)
02:08PM 40.2908 -75.6622 311° West 318 366 16,700 1,920 Climbing FAA TRACON SMA TRACON (SMA)
02:08PM 40.3081 -75.6900 309° West 321 369 17,000 300 Climbing FAA TRACON SMA TRACON (SMA)
02:08PM 40.3250 -75.7153 311° West 323 372 16,900 -180 Descending FAA TRACON SMA TRACON (SMA)
02:09PM 40.3494 -75.7525 311° West 327 376 16,900  Level FAA TRACON SMA TRACON (SMA)
02:09PM 40.3681 -75.7800 312° West 327 376 16,900  Level FAA TRACON SMA TRACON (SMA)
02:09PM 40.3725 -75.7869 310° West 327 376 16,900  Level FAA TRACON SMA TRACON (SMA)
02:10PM 40.4381 -75.8922 309° West 322 371 16,900  Level New York Center
02:11PM 40.4581 -76.0056 283° West 314 361 16,900  Level New York Center
02:12PM 40.4781 -76.1161 283° West 314 361 16,900 540 Level New York Center
02:13PM 40.4956 -76.2322 281° West 319 367 18,100 1,020 Climbing New York Center
02:14PM 40.5117 -76.3344 282° West 319 367 19,000 840 Climbing New York Center
02:15PM 40.5308 -76.4617 281° West 319 367 19,800 1,500 Climbing New York Center
02:16PM 40.5500 -76.5806 282° West 324 373 22,000 1,800 Climbing New York Center
02:17PM 40.5603 -76.7100 276° West 340 391 23,500 1,620 Climbing New York Center
02:18PM 40.5722 -76.8450 277° West 355 409 25,300 1,260 Climbing New York Center
02:19PM 40.5856 -76.9856 277° West 379 436 26,000 300 Climbing New York Center
02:20PM 40.5989 -77.1261 277° West 391 450 26,000  Level New York Center
02:21PM 40.6100 -77.2667 276° West 391 450 26,000  Level New York Center
02:25PM 40.6544 -77.7997 276° West 384 442 26,000  Level Cleveland Center
02:26PM 40.6661 -77.9386 276° West 390 449 26,000  Level Cleveland Center
02:27PM 40.6778 -78.0808 276° West 390 449 26,000  Level Cleveland Center
02:28PM 40.6889 -78.2172 276° West 384 442 26,000  Level Cleveland Center
02:29PM 40.6981 -78.3592 275° West 384 442 26,000  Level Cleveland Center
02:30PM 40.7089 -78.4958 276° West 384 442 26,000  Level Cleveland Center
02:31PM 40.7197 -78.6325 276° West 384 442 26,000  Level Cleveland Center
02:32PM 40.7281 -78.7692 275° West 384 442 26,000  Level Cleveland Center
02:33PM 40.7386 -78.9086 276° West 384 442 26,000  Level Cleveland Center
02:34PM 40.7508 -79.0317 278° West 384 442 26,000  Level Cleveland Center
02:35PM 40.7589 -79.1686 274° West 384 442 26,000  Level Cleveland Center
02:36PM 40.7689 -79.3056 276° West 384 442 26,000  Level Cleveland Center
02:37PM 40.7786 -79.4453 275° West 384 442 26,000  Level Cleveland Center
02:39PM 40.7956 -79.7136 275° West 384 442 26,000  Level Cleveland Center
02:40PM 40.8028 -79.8481 274° West 379 436 26,000  Level Cleveland Center
02:41PM 40.8119 -79.9850 275° West 379 436 26,000  Level Cleveland Center
02:42PM 40.8189 -80.1331 274° West 379 436 26,000  Level Cleveland Center
02:43PM 40.8275 -80.2594 275° West 369 425 26,000 -60 Level Cleveland Center
02:44PM 40.8300 -80.3719 272° West 358 412 25,900 -600 Descending Cleveland Center
02:45PM 40.7989 -80.4897 251° West 341 392 24,900 -1,080 Descending Cleveland Center
02:46PM 40.7633 -80.6050 248° West 341 392 23,800 -1,140 Descending Cleveland Center
02:47PM 40.7300 -80.7228 250° West 338 389 22,700 -1,080 Descending Cleveland Center
02:48PM 40.6964 -80.8322 248° West 331 381 21,700 -1,020 Descending Cleveland Center
02:49PM 40.6628 -80.9389 247° West 326 375 20,700 -1,020 Descending Cleveland Center
02:50PM 40.6333 -81.0428 250° West 321 369 19,700 -1,020 Descending Cleveland Center
02:51PM 40.5994 -81.1464 247° West 312 359 18,700 -1,080 Descending Cleveland Center
02:52PM 40.5717 -81.2444 250° West 305 351 17,600 -1,020 Descending Cleveland Center
02:54PM 40.5194 -81.4108 248° West 287 330 15,900 -1,020 Descending Indianapolis Center
02:55PM 40.4883 -81.5133 248° West 259 298 14,800 -960 Descending Indianapolis Center
02:56PM 40.4622 -81.5994 248° West 254 292 14,000 -420 Descending Indianapolis Center
02:57PM 40.4344 -81.6875 248° West 255 293 14,000  Level Indianapolis Center
02:58PM 40.4061 -81.7794 248° West 264 304 14,000 -540 Level Indianapolis Center
02:59PM 40.3783 -81.8706 248° West 266 306 13,000 -1,020 Descending Indianapolis Center
03:00PM 40.3503 -81.9583 247° West 263 303 12,000 -1,020 Descending Indianapolis Center
03:01PM 40.3233 -82.0461 248° West 258 297 11,000 -600 Descending Indianapolis Center
03:02PM 40.3075 -82.0953 247° West 254 292 11,100 60 Climbing Indianapolis Center
03:02PM 40.2961 -82.1331 248° West 257 296 11,100  Level Indianapolis Center
03:03PM 40.2789 -82.1878 248° West 252 290 11,100  Level Indianapolis Center
03:03PM 40.2706 -82.2156 249° West 249 287 11,100 -720 Level Indianapolis Center
03:04PM 40.2533 -82.2644 245° Southwest 227 261 10,400 -1,500 Descending Indianapolis Center
03:04PM 40.2425 -82.3067 251° West 234 269 9,600 -1,500 Descending Indianapolis Center
03:05PM 40.2319 -82.3414 248° West 229 264 8,900 -1,500 Descending Indianapolis Center
03:05PM 40.2178 -82.3844 247° West 231 266 8,100 -1,320 Descending Indianapolis Center
03:06PM 40.1964 -82.4083 220° Southwest 240 276 7,600 -1,260 Descending Indianapolis Center
03:06PM 40.1656 -82.4306 209° Southwest 231 266 6,800 -1,200 Descending Indianapolis Center
03:07PM 40.1350 -82.4508 207° Southwest 216 249 6,300 -720 Descending Indianapolis Center
03:07PM 40.1167 -82.4647 210° Southwest 207 238 6,100 -600 Descending Indianapolis Center
03:08PM 40.0956 -82.4794 208° Southwest 157 181 5,700 -780 Descending Indianapolis Center
03:08PM 40.0744 -82.4769 175° South 177 204 5,300 -900 Descending Indianapolis Center
03:09PM 40.0422 -82.4628 161° South 188 216 4,700 -1,020 Descending Indianapolis Center
03:09PM 40.0264 -82.4547 159° South 182 209 4,300 -900 Descending Indianapolis Center
03:10PM 39.9944 -82.4603 188° South 192 221 3,800 -900 Descending Indianapolis Center
03:10PM 39.9844 -82.4775 233° Southwest 183 211 3,400 -660 Descending Indianapolis Center
03:11PM 39.9819 -82.5242 266° West 178 205 3,100 -420 Descending Indianapolis Center
03:11PM 39.9803 -82.5378 261° West 172 198 3,000 -180 Descending Indianapolis Center
03:12PM 39.9828 -82.5733 275° West 176 203 3,000  Level Indianapolis Center
03:13PM 39.9850 -82.6097 275° West 170 196 3,000  Level Indianapolis Center
03:13PM 39.9875 -82.6336 278° West 189 217 3,000  Level Indianapolis Center
03:14PM 39.9906 -82.6706 276° West 168 193 3,000  Level Indianapolis Center
03:14PM 39.9900 -82.6911 268° West 179 206 3,000  Level Indianapolis Center
03:15PM 39.9931 -82.7275 276° West 163 188 3,000 -120 Level Indianapolis Center
03:15PM 39.9944 -82.7486 275° West 166 191 2,900 -720 Descending Indianapolis Center
03:16PM 39.9958 -82.7811 273° West 154 177 2,300 -840 Descending Indianapolis Center
03:16PM 39.9972 -82.8008 275° West 134 154 2,100 -720 Descending Indianapolis Center
03:17PM 39.9986 -82.8297 274° West 143 165 1,600 -720 Descending Indianapolis Center